Terminal Aerodrome Forecast
Issued by NWS

Home | Current Version | Previous Version | Text Only | Print | Product List | Glossary On
Versions: 1 2 3 4 5 6 7 8 9 10 11 12
000
FTUS43 KPAH 121732
TAFCGI
TAF
KCGI 121732Z 1218/1318 34014G22KT P6SM SKC
     FM122200 32008KT P6SM SKC
     FM130200 VRB03KT P6SM SKC
     FM131000 19008KT P6SM FEW120
     FM131500 21015G24KT P6SM SKC=

USA.gov is the U.S. government's official web portal to all federal, state and local government web resources and services.